Historique des mesures à Cassis (13260), France
Quotidien Résumé Septembre 10, 2017 Unités:  Métrique    US   Métrique/US
« Précédent (Jour)
Suivant (Jour) »
Quotidien Hebdomadaire Mensuel Annuel Période au choix
  Maximum: Minimum: Moyenne:
Température: TemperatureC °C 14.4 °C 17.7 °C
Point de rosée: DewpointC °C 7.7 °C 9.6 °C
Humidité: Humidity % 43 % 57 %
Vitesse du vent: 0 km/h 0 km/h 23.2 km/h
Rafales: 0 km/h - -
Vent:- - SSW
Pression: PressurehPa hPa 997.9 hPa -
Précipitations: 0.0 mm    
Historical Graphs
 
 
Mesures pour : Septembre 10, 2017
Heure Temperature Point de rosée Pression Vent Vitesse du vent Rafales Humidité Pluie (par heure) Conditions
TemperatureC °C DewpointC °C PressurehPa hPa Calm     Humidity % HourlyPrecipMM mm SoftwareType W/m2
00:11 16.5 °C 11.8 °C 999.2 hPa WNW 20.9 km/h 20.9 km/h 74 % 0.0 mm open2300-1.11 W/m2
01:11 17.0 °C 11.7 °C 999.2 hPa Calm   9.8 km/h 71 % 0.0 mm open2300-1.11 W/m2
02:11 16.8 °C 11.3 °C 998.9 hPa NW 46.8 km/h 46.8 km/h 70 % 0.0 mm open2300-1.11 W/m2
03:11 16.2 °C 11.0 °C 998.2 hPa NE 20.9 km/h 20.9 km/h 71 % 0.0 mm open2300-1.11 W/m2
04:11 15.6 °C 11.4 °C 998.2 hPa North 20.9 km/h 31.4 km/h 76 % 0.0 mm open2300-1.11 W/m2
05:11 15.4 °C 11.0 °C 998.2 hPa NNE 21.6 km/h 29 km/h 75 % 0.0 mm open2300-1.11 W/m2
06:11 14.9 °C 10.5 °C 997.9 hPa NNW 27.2 km/h 34.8 km/h 75 % 0.0 mm open2300-1.11 W/m2
07:11 14.6 °C 10.0 °C 997.9 hPa North 27.2 km/h 27.2 km/h 74 % 0.0 mm open2300-1.11 W/m2
08:11 14.4 °C 9.8 °C 997.9 hPa WNW 31.4 km/h 31.4 km/h 74 % 0.0 mm open2300-1.11 W/m2
09:11 15.3 °C 10.1 °C 997.9 hPa NW 30.7 km/h 54.4 km/h 71 % 0.0 mm open2300-1.11 W/m2
10:11 15.8 °C 10.4 °C 997.9 hPa NE 14 km/h 20.9 km/h 70 % 0.0 mm open2300-1.11 W/m2
11:11 18.1 °C 10.9 °C 997.9 hPa NW 27.7 km/h 37 km/h 63 % 0.0 mm open2300-1.11 W/m2
12:11 18.9 °C 10.4 °C 998.5 hPa WNW 15.6 km/h 27.2 km/h 58 % 0.0 mm open2300-1.11 W/m2
13:11 20.1 °C 10.2 °C 998.5 hPa NW 32.3 km/h 33.6 km/h 53 % 0.0 mm open2300-1.11 W/m2
14:11 21.3 °C 10.4 °C 998.5 hPa NW 14.5 km/h 37.5 km/h 50 % 0.0 mm open2300-1.11 W/m2
15:11 22.2 °C 10.3 °C 998.9 hPa NW 14 km/h 39.4 km/h 47 % 0.0 mm open2300-1.11 W/m2
16:11 22.9 °C 10.3 °C 998.9 hPa NNW 30.7 km/h 38.3 km/h 45 % 0.0 mm open2300-1.11 W/m2
17:11 23.1 °C 10.1 °C 999.2 hPa NW 25.4 km/h 25.4 km/h 44 % 0.0 mm open2300-1.11 W/m2
18:11 22.8 °C 9.5 °C 999.5 hPa WNW 42.2 km/h 49.2 km/h 43 % 0.0 mm open2300-1.11 W/m2
19:11 21.8 °C 8.6 °C 999.9 hPa NNE 15.6 km/h 36.5 km/h 43 % 0.0 mm open2300-1.11 W/m2
20:11 20.4 °C 8.0 °C 1000.6 hPa NNW 16.3 km/h 44.1 km/h 45 % 0.0 mm open2300-1.11 W/m2
21:11 19.8 °C 7.8 °C 1001.6 hPa North 19.2 km/h 40.7 km/h 46 % 0.0 mm open2300-1.11 W/m2
22:11 19.3 °C 7.7 °C 1001.6 hPa North 23 km/h 31.4 km/h 47 % 0.0 mm open2300-1.11 W/m2
23:11 18.9 °C 7.9 °C 1001.6 hPa NNW 40.7 km/h 40.7 km/h 49 % 0.0 mm open2300-1.11 W/m2
Observations météo à CASSIS
WU-History script by Weather Underground - 1 mb